Tropical Cyclones
[Index]
Main Index Home Page Stock Weather Photos Extreme Storms Discussion Storm News and Storm Chasing Reports Tropical Cyclones / Hurricanes / Typhoons Weather Data and Links Wild Fires / Bushfires Weather Observation Techniques Weather Picture Catalogue Tornado Pictures and Reports Stock Video Footage and DVDs for sale
Season 1997-1998 Tropical Cyclone SID Track Map
Season 1997-1998 Summaries (Operational Data): [AU] [SIO] [SPAC] [SH]
<<- Previous TC | 1997-1998 Season | Next TC ->>

click for intensity scale information  Lat/long Grid: Show Hide

 Date Labels: Show Hide

Operational Tropical Cyclone Data : JTWC Advisories

Name: SID
Number: 9808

26 Dec 1997 00:00 UTC to 07 Jan 1998 18:00 UTC

    date/time    lat    long     hPa   cat  kts
1997-12-26 00   11.0   131.8    1000         30          
1997-12-26 06   11.0   132.6     992    1    40          
1997-12-26 12   11.2   133.3     990    1    40          
1997-12-26 18   11.5   134.8     990    1    40          
1997-12-27 00   12.0   135.8     990    1    40          
1997-12-27 06   12.4   136.8     988    1    40          
1997-12-27 12   13.2   137.4     988    1    45          
1997-12-27 18   14.2   137.4     988    1    45          
1997-12-28 00   14.4   138.4     985    2    50          
1997-12-28 06   15.9   138.7            1    40          
1997-12-28 12   16.6   138.8                 30          
1998-01-03 06   14.2   137.1    1000         25          
1998-01-03 12   14.0   138.2    1000         25          
1998-01-03 18   14.5   138.5     999         25          
1998-01-04 00   14.5   139.3     999         25          
1998-01-04 06   15.0   139.5    1000         25          
1998-01-05 06   16.1   140.3                 25          
1998-01-07 00   15.9   139.8     999         30          
1998-01-07 06   16.0   140.0     999         30          
1998-01-07 12   16.2   140.4     999         30          
1998-01-07 18   16.5   140.5     999         30          
Winds are 10-min average.

Tropical cyclone tracks developed by Michael Bath using operational warnings and advisories and Google Maps.


[Australian Severe Weather index] [Copyright Notice] [Email Contacts] [Search This Site] [Privacy Policy]
Document: tropical_cyclone_sid.htm Updated: 4 September 2016